Airfield :
LOGIN :

Register | Disclaimer

   EN    FR    IT 

 










Legend :    VFR   Marginal VFR   IFR   Intensive IFR   Very Intensive IFR
Visi :
Ceiling :
>= 8 km
>= 3000ft
5 to 8 km
1000 to 3000 ft
1500m to 5 km
500 to 1000 ft
800 to 1500m
200 to 500 ft
< 800m
< 200 ft
Symbols :   Thunderstorms  Fog  Heavy snow  Heavy precipitations  Wind > 20 kt
SIGMETs :     Misc.  Thunderstorms  Icing  Turbulence  Mountain Waves  Volcanic Ashes







- Airport Elevation : 526 ft
- IATA code : LTN
- Download approach charts


EGGW - London Luton

CURRENT METAR :
  • 180720Z AUTO 29023G34KT 9999 FEW025 SCT030 05/02 Q0996

EXPIRED METARs :
  • 180650Z AUTO 29024G34KT 9999 BKN025 06/02 Q0995
  • 180620Z AUTO 28030G40KT 9999 BKN029 06/01 Q0994
  • 180550Z AUTO 28033G54KT 9999 BKN035 07/01 Q0993
  • 180520Z AUTO 27033G50KT 9999 BKN040 08/02 Q0991
  • 180450Z AUTO 26030G46KT 9999 SCT031 BKN040 09/05 Q0989

TAF AMD TAF EGGW
Valid from the 18 at 06:00 until the 19 at 06:00 UTC


180632Z 1806/1906 28030G40KT 9999 SCT025
BECMG 1807/1810 27013KT
TEMPO 1810/1820 28016G26KT
PROB30
TEMPO 1812/1818 4000 +SHRA BKN009 BKN020CB
ATIS : +44 1582 395 204
No reported NOTAMs for that airfield.
1 SIGMET reported for the London FIR (EGTT) :
 
Severe turbulence
EGTT SIGMET 04 VALID 180640/181030 EGRR
EGTT LONDON FIR SEV TURB FCST E OF LINE N4955 W00225 - N5500 W00311 SFC/FL060 MOV E 45KT INTSF=



MET'MAP, your aeronautical weather chart ! - Copyright ORBIFLY December 2007 - Disclaimer

ORBIFLY MET'MAP TEAM :

Programming & Development : Alexandra Zaïnal
Concept & Development : Baudouin d'Aumeries
Co-Development & Prog : Marc-Olivier Méhu
Technical & hardware support : Manuel Goepfert

Contact : metmap@orbifly.com




SOURCES & CREDITS :

   NOAA